createdAt,value
2022-10-21T00:00:39.880Z,12.90
2022-10-21T00:03:07.290Z,12.90
2022-10-21T00:05:34.213Z,12.90
2022-10-21T00:08:01.181Z,12.90
2022-10-21T00:10:28.039Z,12.90
2022-10-21T00:12:55.026Z,13.00
2022-10-21T00:15:21.996Z,12.90
2022-10-21T00:17:48.867Z,12.90
2022-10-21T00:20:16.255Z,12.90
2022-10-21T00:22:43.181Z,12.90
2022-10-21T04:37:05.405Z,13.50
2022-10-21T04:39:36.796Z,13.50
2022-10-21T04:42:03.887Z,13.60
2022-10-21T04:44:30.753Z,13.60
2022-10-21T04:46:57.719Z,13.60
2022-10-21T04:49:24.528Z,13.60
2022-10-21T04:51:54.392Z,13.60
2022-10-21T04:54:21.325Z,13.60
2022-10-21T04:56:48.112Z,13.70
2022-10-21T04:59:15.080Z,13.60
2022-10-21T05:01:41.876Z,13.70
2022-10-21T05:04:11.017Z,13.70
2022-10-21T05:06:41.245Z,13.70
2022-10-21T05:09:10.138Z,13.70
2022-10-21T05:11:37.017Z,13.70
2022-10-21T05:14:04.689Z,13.70
2022-10-21T05:16:35.493Z,13.70
2022-10-21T05:19:02.475Z,13.80
2022-10-21T05:21:29.293Z,13.80
2022-10-21T05:23:56.229Z,13.80
2022-10-21T05:26:25.256Z,13.80
2022-10-21T05:28:55.972Z,13.80
2022-10-21T05:31:23.021Z,13.80
2022-10-21T05:33:49.981Z,13.80
2022-10-21T05:36:18.514Z,13.80
2022-10-21T05:38:50.596Z,13.80
2022-10-21T05:41:17.506Z,13.90
2022-10-21T05:43:44.515Z,13.90
2022-10-21T05:46:11.372Z,13.90
2022-10-21T05:48:38.599Z,13.90
2022-10-21T05:51:08.144Z,13.90
2022-10-21T05:53:35.961Z,13.80
2022-10-21T05:56:07.862Z,13.90
2022-10-21T05:58:35.079Z,13.80
2022-10-21T06:01:02.384Z,13.80
2022-10-21T06:03:32.360Z,13.80
2022-10-21T06:06:07.865Z,13.90
2022-10-21T06:08:37.125Z,13.80
2022-10-21T06:11:09.719Z,13.90
2022-10-21T06:13:38.039Z,13.90
2022-10-21T06:18:38.808Z,13.90
2022-10-21T06:21:06.638Z,13.90
2022-10-21T06:23:34.090Z,13.90
2022-10-21T06:26:05.656Z,13.90
2022-10-21T06:28:34.844Z,13.90
2022-10-21T06:31:02.410Z,13.90
2022-10-21T06:33:31.902Z,13.90
2022-10-21T06:35:59.035Z,13.80
2022-10-21T06:38:26.372Z,13.80
2022-10-21T06:41:00.422Z,13.80
2022-10-21T06:43:27.509Z,13.80
2022-10-21T06:46:06.420Z,13.80
2022-10-21T06:48:33.693Z,13.80
2022-10-21T06:51:09.425Z,13.90
2022-10-21T06:53:39.386Z,13.90
2022-10-21T06:56:10.278Z,13.90
2022-10-21T06:58:43.482Z,13.80
2022-10-21T07:01:27.244Z,13.80
2022-10-21T07:03:59.233Z,13.80
2022-10-21T07:06:26.357Z,13.80
2022-10-21T07:08:58.383Z,13.90
2022-10-21T07:11:29.839Z,13.90
2022-10-21T07:13:56.710Z,14.00
2022-10-21T07:16:38.573Z,14.00
2022-10-21T07:19:06.057Z,14.00
2022-10-21T07:21:33.374Z,14.00
2022-10-21T07:24:01.031Z,14.00
2022-10-21T07:26:32.723Z,14.10
2022-10-21T07:29:00.941Z,14.10
2022-10-21T07:31:35.298Z,14.10
2022-10-21T07:36:38.202Z,14.20
2022-10-21T07:39:15.286Z,14.20
2022-10-21T07:41:54.319Z,14.20
2022-10-21T07:44:23.122Z,14.20
2022-10-21T07:46:51.440Z,14.30
2022-10-21T07:49:19.583Z,14.30
2022-10-21T07:51:47.008Z,14.30
2022-10-21T07:54:14.688Z,14.30
2022-10-21T07:56:45.052Z,14.40
2022-10-21T07:59:13.558Z,14.40
2022-10-21T08:01:44.806Z,14.40
2022-10-21T08:04:15.370Z,14.50
2022-10-21T08:06:43.204Z,14.50
2022-10-21T08:09:10.284Z,14.50
2022-10-21T08:11:37.937Z,14.50
2022-10-21T08:14:08.719Z,14.60
2022-10-21T08:16:36.674Z,14.60
2022-10-21T08:19:05.022Z,14.60
2022-10-21T08:21:31.841Z,14.60
2022-10-21T08:24:02.085Z,14.50
2022-10-21T08:26:29.105Z,14.60
2022-10-21T08:28:56.045Z,14.60
2022-10-21T08:31:23.228Z,14.70
2022-10-21T08:33:50.818Z,14.50
2022-10-21T08:36:25.068Z,14.60
2022-10-21T08:38:55.104Z,14.60
2022-10-21T08:41:31.392Z,14.70
2022-10-21T08:44:07.707Z,14.80
2022-10-21T08:47:06.940Z,14.80
2022-10-21T08:49:43.695Z,14.80
2022-10-21T08:52:16.302Z,14.80
2022-10-21T08:55:01.462Z,14.80
2022-10-21T08:57:28.951Z,14.80
2022-10-21T08:59:56.069Z,14.90
2022-10-21T09:02:49.091Z,14.90
2022-10-21T09:05:46.389Z,14.80
2022-10-21T09:08:19.037Z,14.80
2022-10-21T09:11:15.519Z,14.70
2022-10-21T09:13:47.335Z,14.70
2022-10-21T09:16:24.030Z,14.70
2022-10-21T09:19:08.157Z,14.80
2022-10-21T09:22:10.891Z,14.70
2022-10-21T09:24:58.710Z,14.70
2022-10-21T09:27:32.279Z,14.70
2022-10-21T09:30:17.052Z,14.80
2022-10-21T09:32:50.838Z,14.80
2022-10-21T09:35:29.542Z,14.80
2022-10-21T09:38:33.821Z,14.90
2022-10-21T09:41:03.597Z,14.90
2022-10-21T09:43:31.342Z,14.90
2022-10-21T09:46:04.099Z,15.00
2022-10-21T09:49:29.281Z,15.00
2022-10-21T09:51:45.750Z,14.90
2022-10-21T09:54:29.516Z,14.90
2022-10-21T09:57:15.998Z,14.90
2022-10-21T10:00:06.103Z,14.90
2022-10-21T10:02:44.009Z,14.90
2022-10-21T10:05:36.817Z,14.90
2022-10-21T10:08:45.247Z,14.90
2022-10-21T10:11:14.011Z,15.00
2022-10-21T10:13:41.813Z,15.00
2022-10-21T10:16:29.742Z,15.10
2022-10-21T10:19:18.836Z,15.10
2022-10-21T10:21:48.256Z,15.10
2022-10-21T10:24:25.983Z,15.00
2022-10-21T10:26:52.838Z,15.00
2022-10-21T10:29:29.605Z,15.10
2022-10-21T10:32:01.677Z,15.10
2022-10-21T10:34:28.518Z,15.10
2022-10-21T10:37:08.391Z,15.10
2022-10-21T10:39:38.972Z,15.10
2022-10-21T10:42:07.436Z,15.10
2022-10-21T10:44:39.691Z,15.00
2022-10-21T10:47:08.942Z,15.10
2022-10-21T10:49:42.477Z,15.10
2022-10-21T10:52:12.537Z,15.10
2022-10-21T10:54:41.336Z,15.10
2022-10-21T10:57:29.993Z,15.10
2022-10-21T11:00:21.283Z,15.10
2022-10-21T11:03:00.512Z,15.20
2022-10-21T11:05:38.799Z,15.20
2022-10-21T11:08:16.671Z,15.20
2022-10-21T11:10:46.115Z,15.30
2022-10-21T11:13:16.171Z,15.30
2022-10-21T11:16:01.078Z,15.40
2022-10-21T11:18:49.868Z,15.50
2022-10-21T11:21:25.640Z,15.50
2022-10-21T11:24:05.180Z,15.50
2022-10-21T11:26:44.608Z,15.60
2022-10-21T11:29:11.648Z,15.70
2022-10-21T11:32:11.713Z,15.70
2022-10-21T11:34:57.252Z,15.80
2022-10-21T11:37:27.083Z,15.80
2022-10-21T11:40:02.467Z,15.90
2022-10-21T11:42:42.514Z,16.00
2022-10-21T11:45:30.286Z,16.30
2022-10-21T11:48:39.469Z,16.50
2022-10-21T11:51:18.063Z,17.10
2022-10-21T11:54:07.804Z,17.40
2022-10-21T11:56:49.391Z,17.50
2022-10-21T11:59:40.780Z,17.80
2022-10-21T12:02:43.801Z,18.60
2022-10-21T12:05:34.325Z,19.20
2022-10-21T12:08:22.239Z,18.80
2022-10-21T12:11:03.896Z,18.40
2022-10-21T12:13:42.074Z,18.20
2022-10-21T12:16:13.432Z,18.00
2022-10-21T12:18:48.475Z,18.30
2022-10-21T12:21:18.753Z,18.60
2022-10-21T12:23:50.404Z,18.70
2022-10-21T12:26:33.524Z,18.40
2022-10-21T12:29:11.424Z,18.80
2022-10-21T12:31:53.814Z,19.60
2022-10-21T12:34:21.527Z,19.60
2022-10-21T12:36:50.979Z,19.60
2022-10-21T12:39:47.836Z,19.30
2022-10-21T12:42:17.215Z,18.80
2022-10-21T12:44:48.967Z,18.40
2022-10-21T12:47:34.457Z,18.30
2022-10-21T12:50:22.429Z,18.40
2022-10-21T12:53:15.778Z,18.40
2022-10-21T12:55:51.225Z,18.40
2022-10-21T12:58:41.526Z,18.40
2022-10-21T13:01:34.377Z,18.70
2022-10-21T13:04:02.266Z,19.00
2022-10-21T13:06:55.914Z,19.60
2022-10-21T13:09:51.128Z,20.20
2022-10-21T13:12:24.390Z,20.50
2022-10-21T13:14:57.169Z,20.80
2022-10-21T13:17:27.540Z,20.70
2022-10-21T13:20:06.538Z,20.30
2022-10-21T13:22:39.787Z,19.80
2022-10-21T13:25:16.259Z,19.30
2022-10-21T13:27:53.712Z,19.30
2022-10-21T13:30:49.854Z,19.10
2022-10-21T13:33:29.998Z,18.70
2022-10-21T13:36:10.254Z,18.70
2022-10-21T13:38:46.768Z,18.60
2022-10-21T13:41:26.919Z,18.50
2022-10-21T13:43:55.706Z,18.50
2022-10-21T13:46:40.686Z,18.30
2022-10-21T13:49:32.889Z,18.20
2022-10-21T13:52:00.051Z,18.20
2022-10-21T13:54:34.556Z,18.20
2022-10-21T13:57:07.406Z,18.10
2022-10-21T13:59:35.294Z,18.10
2022-10-21T14:02:03.821Z,18.10
2022-10-21T14:04:32.570Z,18.00
2022-10-21T14:07:04.946Z,18.00
2022-10-21T14:09:45.247Z,18.10
2022-10-21T14:12:32.326Z,18.00
2022-10-21T14:15:11.511Z,18.00
2022-10-21T14:17:44.030Z,18.00
2022-10-21T14:20:17.869Z,18.00
2022-10-21T14:22:49.949Z,18.10
2022-10-21T14:25:19.111Z,18.10
2022-10-21T14:27:48.810Z,18.10
2022-10-21T14:30:24.769Z,18.20
2022-10-21T14:32:53.271Z,18.30
2022-10-21T14:35:20.252Z,18.20
2022-10-21T14:37:56.364Z,18.20
2022-10-21T14:40:32.356Z,18.10
2022-10-21T14:43:19.636Z,18.10
2022-10-21T14:45:55.791Z,18.10
2022-10-21T14:48:44.765Z,18.00
2022-10-21T14:51:17.673Z,18.10
2022-10-21T14:54:02.109Z,18.00
2022-10-21T14:56:40.418Z,18.10
2022-10-21T14:59:16.582Z,18.10
2022-10-21T15:01:46.697Z,18.10
2022-10-21T15:04:51.539Z,18.10
2022-10-21T15:07:31.484Z,18.10
2022-10-21T15:10:07.421Z,18.00
2022-10-21T15:12:52.851Z,18.10
2022-10-21T15:15:42.392Z,18.10
2022-10-21T15:18:12.376Z,18.10
2022-10-21T15:20:39.441Z,18.00
2022-10-21T15:23:06.507Z,18.10
2022-10-21T15:28:11.371Z,18.00
2022-10-21T15:30:38.343Z,18.00
2022-10-21T15:33:11.504Z,18.00
2022-10-21T15:35:38.366Z,18.00
2022-10-21T15:38:05.166Z,17.90
2022-10-21T15:40:33.541Z,17.80
2022-10-21T15:43:01.337Z,17.80
2022-10-21T15:45:28.805Z,17.80
2022-10-21T15:47:56.070Z,17.70
2022-10-21T15:50:25.913Z,17.70
2022-10-21T15:52:53.627Z,17.60
2022-10-21T15:55:20.773Z,17.60
2022-10-21T15:57:48.018Z,17.60
2022-10-21T16:00:20.594Z,17.50
2022-10-21T16:02:49.197Z,17.50
2022-10-21T16:05:17.162Z,17.40
2022-10-21T16:07:44.760Z,17.30
2022-10-21T16:10:25.803Z,17.30
2022-10-21T16:12:52.778Z,17.20
2022-10-21T16:15:20.380Z,17.10
2022-10-21T16:17:50.119Z,17.00
2022-10-21T16:20:30.902Z,17.00
2022-10-21T16:23:02.172Z,16.90
2022-10-21T16:25:31.572Z,16.90
2022-10-21T16:27:58.679Z,16.90
2022-10-21T16:30:35.458Z,16.80
2022-10-21T16:33:02.485Z,16.70
2022-10-21T16:35:29.630Z,16.70
2022-10-21T16:37:56.762Z,16.70
2022-10-21T16:40:29.596Z,16.60
2022-10-21T16:42:56.717Z,16.60
2022-10-21T16:45:29.384Z,16.50
2022-10-21T16:47:59.286Z,16.50
2022-10-21T16:50:30.382Z,16.50
2022-10-21T16:52:58.553Z,16.40
2022-10-21T16:55:25.648Z,16.40
2022-10-21T16:57:52.735Z,16.30
2022-10-21T17:00:19.727Z,16.30
2022-10-21T17:02:49.624Z,16.20
2022-10-21T17:05:17.128Z,16.20
2022-10-21T17:07:43.976Z,16.10
2022-10-21T17:10:11.271Z,16.10
2022-10-21T17:12:38.317Z,16.00
2022-10-21T17:15:06.249Z,16.00
2022-10-21T17:17:33.596Z,16.00
2022-10-21T17:20:00.907Z,16.00
2022-10-21T17:22:27.799Z,15.90
2022-10-21T17:24:54.701Z,16.00
2022-10-21T17:27:22.065Z,16.00
2022-10-21T17:29:49.218Z,16.00
2022-10-21T17:32:16.879Z,16.00
2022-10-21T17:34:44.009Z,16.00
2022-10-21T17:37:12.331Z,15.90
2022-10-21T17:39:39.650Z,16.00
2022-10-21T17:42:07.324Z,15.90
2022-10-21T17:44:34.683Z,15.90
2022-10-21T17:47:01.713Z,15.90
2022-10-21T17:49:29.006Z,15.90
2022-10-21T17:51:56.826Z,15.90
2022-10-21T17:54:27.844Z,15.90
2022-10-21T17:56:56.912Z,15.90
2022-10-21T17:59:24.325Z,15.90
2022-10-21T18:01:51.304Z,15.90
2022-10-21T18:04:18.755Z,15.90
2022-10-21T18:06:45.623Z,16.00
2022-10-21T18:09:12.687Z,16.00
2022-10-21T18:11:39.870Z,16.00
2022-10-21T18:14:06.948Z,16.00
2022-10-21T18:16:34.922Z,16.00
2022-10-21T18:19:03.148Z,15.90
2022-10-21T18:21:30.963Z,15.90
2022-10-21T18:23:58.175Z,15.90
2022-10-21T18:26:28.499Z,15.90
2022-10-21T18:29:00.669Z,15.90
2022-10-21T18:31:30.250Z,15.90
2022-10-21T18:33:58.979Z,15.90
2022-10-21T18:36:26.655Z,15.80
2022-10-21T18:38:54.788Z,15.80
2022-10-21T18:41:22.637Z,15.80
2022-10-21T18:44:00.414Z,15.80
2022-10-21T18:46:28.765Z,15.80
2022-10-21T18:48:55.810Z,15.70
2022-10-21T18:51:24.001Z,15.70
2022-10-21T18:53:53.270Z,15.70
2022-10-21T18:56:22.489Z,15.70
2022-10-21T18:58:50.083Z,15.70
2022-10-21T19:01:18.562Z,15.70
2022-10-21T19:03:46.691Z,15.80
2022-10-21T19:06:17.220Z,15.80
2022-10-21T19:08:44.550Z,15.80
2022-10-21T19:11:11.726Z,15.80
2022-10-21T19:13:38.571Z,15.80
2022-10-21T19:16:05.851Z,15.80
2022-10-21T19:18:33.586Z,15.80
2022-10-21T19:21:00.752Z,15.80
2022-10-21T19:23:31.572Z,15.80
2022-10-21T19:26:06.920Z,15.80
2022-10-21T19:28:35.823Z,15.70
2022-10-21T19:31:03.375Z,15.70
2022-10-21T19:33:31.242Z,15.70
2022-10-21T19:36:02.790Z,15.70
2022-10-21T19:38:43.682Z,15.70
2022-10-21T19:41:13.686Z,15.60
2022-10-21T19:43:40.641Z,15.60
2022-10-21T19:46:08.599Z,15.60
2022-10-21T19:48:37.014Z,15.60
2022-10-21T19:51:07.974Z,15.60
2022-10-21T19:53:36.551Z,15.60
2022-10-21T19:56:05.750Z,15.60
2022-10-21T19:58:34.024Z,15.60
2022-10-21T20:01:09.880Z,15.60
2022-10-21T20:03:37.687Z,15.60
2022-10-21T20:08:42.274Z,15.60
2022-10-21T20:11:12.415Z,15.50
2022-10-21T20:13:39.649Z,15.50
2022-10-21T20:16:07.099Z,15.60
2022-10-21T20:18:34.343Z,15.50
2022-10-21T20:21:07.712Z,15.50
2022-10-21T20:23:35.399Z,15.50
2022-10-21T20:26:03.492Z,15.60
2022-10-21T20:28:30.934Z,15.50
2022-10-21T20:31:00.057Z,15.50
2022-10-21T20:33:27.884Z,15.60
2022-10-21T20:35:54.752Z,15.50
2022-10-21T20:38:22.110Z,15.50
2022-10-21T20:41:03.041Z,15.60
2022-10-21T20:43:30.432Z,15.60
2022-10-21T20:46:00.634Z,15.50
2022-10-21T20:48:28.629Z,15.60
2022-10-21T20:51:08.288Z,15.60
2022-10-21T20:53:35.659Z,15.50
2022-10-21T20:56:06.592Z,15.60
2022-10-21T20:58:38.916Z,15.50
2022-10-21T21:01:09.010Z,15.50
2022-10-21T21:03:37.945Z,15.60
2022-10-21T21:06:05.974Z,15.60
2022-10-21T21:08:37.299Z,15.50
2022-10-21T21:11:07.107Z,15.50
2022-10-21T21:13:34.953Z,15.40
2022-10-21T21:16:08.487Z,15.40
2022-10-21T21:18:37.405Z,15.40
2022-10-21T21:21:06.984Z,15.40
2022-10-21T21:23:35.240Z,15.30
2022-10-21T21:26:04.314Z,15.30
2022-10-21T21:28:35.591Z,15.30
2022-10-21T21:31:05.086Z,15.30
2022-10-21T21:33:33.146Z,15.30
2022-10-21T21:36:01.175Z,15.20
2022-10-21T21:38:28.630Z,15.20
2022-10-21T21:40:55.893Z,15.10
2022-10-21T21:43:22.906Z,15.20
2022-10-21T21:45:50.327Z,15.10
2022-10-21T21:48:18.398Z,15.10
2022-10-21T21:50:46.654Z,15.10
2022-10-21T21:53:16.357Z,15.10
2022-10-21T21:55:43.619Z,15.10
2022-10-21T21:58:10.491Z,15.20
2022-10-21T22:00:37.565Z,15.10
2022-10-21T22:03:05.788Z,15.10
2022-10-21T22:05:32.797Z,15.20
2022-10-21T22:08:00.259Z,15.20
2022-10-21T22:10:27.846Z,15.20
2022-10-21T22:12:58.516Z,15.20
2022-10-21T22:18:13.094Z,15.30
2022-10-21T22:20:40.962Z,15.20
2022-10-21T22:23:08.015Z,15.20
2022-10-21T22:25:35.467Z,15.20
2022-10-21T22:28:02.545Z,15.20
2022-10-21T22:30:29.348Z,15.20
2022-10-21T22:32:56.307Z,15.20
2022-10-21T22:35:23.169Z,15.20
2022-10-21T22:37:49.936Z,15.20
2022-10-21T22:40:16.925Z,15.30
2022-10-21T22:45:15.964Z,15.30
2022-10-21T22:47:43.027Z,15.30
2022-10-21T22:50:10.073Z,15.30
2022-10-21T22:52:37.226Z,15.30
2022-10-21T22:55:04.607Z,15.30
2022-10-21T22:57:31.698Z,15.30
2022-10-21T22:59:58.542Z,15.30
2022-10-21T23:02:25.452Z,15.30
2022-10-21T23:04:52.446Z,15.30
2022-10-21T23:07:19.486Z,15.30
2022-10-21T23:09:46.310Z,15.30
2022-10-21T23:12:13.349Z,15.40
2022-10-21T23:14:40.303Z,15.40
2022-10-21T23:17:07.218Z,15.40
2022-10-21T23:19:34.279Z,15.40
2022-10-21T23:22:01.160Z,15.50
2022-10-21T23:24:27.981Z,15.40
2022-10-21T23:26:59.081Z,15.50
2022-10-21T23:29:28.379Z,15.50
2022-10-21T23:31:57.417Z,15.40
2022-10-21T23:34:24.517Z,15.40
2022-10-21T23:36:51.757Z,15.40
2022-10-21T23:39:18.984Z,15.40
2022-10-21T23:41:47.042Z,15.50
2022-10-21T23:44:14.109Z,15.50
2022-10-21T23:46:41.495Z,15.50
2022-10-21T23:49:09.486Z,15.60
2022-10-21T23:51:36.777Z,15.50
2022-10-21T23:54:03.943Z,15.50
2022-10-21T23:56:32.609Z,15.50
2022-10-21T23:59:01.305Z,15.50
